Time;durP1;ratioP1;P1;durP2;ratioP2;P2;SDS_P1;SDS_P2;PMS_P1;PMS_P2;Temp;Humidity;BMP_temperature;BMP_pressure;BME280_temperature;BME280_humidity;BME280_pressure;Samples;Min_cycle;Max_cycle;Signal;HPM_P1;HPM_P2
2022/04/12 00:01:43;;;;;;;10.27;7.00;;;;;;;7.75;60.02;100960.38;5093751;28;20125;-89
2022/04/12 00:04:09;;;;;;;11.63;6.70;;;;;;;7.89;59.56;100980.25;5093212;28;20035;-84
2022/04/12 00:06:34;;;;;;;10.23;6.60;;;;;;;7.84;59.57;100969.19;5091787;28;20063;-85
2022/04/12 00:09:00;;;;;;;11.30;6.80;;;;;;;7.82;59.17;100946.97;5093203;28;20043;-83
2022/04/12 00:11:25;;;;;;;9.77;6.47;;;;;;;7.86;59.29;100958.19;5093066;28;20043;-86
2022/04/12 00:13:51;;;;;;;11.93;6.90;;;;;;;7.87;60.20;100951.78;5093251;28;20565;-83
2022/04/12 00:16:16;;;;;;;10.57;6.90;;;;;;;7.88;60.20;100945.38;5092416;28;20038;-82
2022/04/12 00:21:26;;;;;;;12.88;7.15;;;;;;;7.88;59.12;100926.47;5092937;28;20049;-80
2022/04/12 00:23:51;;;;;;;9.57;6.37;;;;;;;7.87;59.98;100933.72;5091689;28;20032;-81
2022/04/12 00:26:16;;;;;;;12.43;6.17;;;;;;;7.94;59.09;100940.03;5092930;28;20764;-82
2022/04/12 00:28:42;;;;;;;10.00;6.40;;;;;;;7.99;58.83;100946.72;5059507;28;20146;-83
2022/04/12 00:31:08;;;;;;;13.30;6.73;;;;;;;8.06;58.92;100945.72;5075103;28;20027;-84
2022/04/12 00:33:34;;;;;;;9.70;6.30;;;;;;;7.96;58.95;100934.44;5092984;28;20039;-80
2022/04/12 00:36:00;;;;;;;10.43;6.40;;;;;;;8.06;59.23;100950.31;5093514;28;20090;-82
2022/04/12 00:38:27;;;;;;;11.50;6.47;;;;;;;8.09;58.75;100942.69;5093353;28;20028;-84
2022/04/12 00:40:54;;;;;;;9.07;6.07;;;;;;;8.03;58.82;100926.41;5070050;28;20146;-84
2022/04/12 00:43:20;;;;;;;10.43;6.20;;;;;;;8.01;58.62;100928.47;5092903;28;20132;-87
2022/04/12 00:45:47;;;;;;;10.53;5.57;;;;;;;7.92;58.51;100915.09;5093387;28;20371;-85
2022/04/12 00:48:13;;;;;;;9.77;5.80;;;;;;;8.01;58.88;100925.75;5070876;28;20128;-82
2022/04/12 00:50:40;;;;;;;11.00;5.37;;;;;;;7.97;57.97;100917.22;5091143;28;20424;-85
2022/04/12 00:53:10;;;;;;;10.23;6.10;;;;;;;8.08;58.46;100937.47;5092522;28;20041;-81
2022/04/12 00:55:35;;;;;;;8.50;5.57;;;;;;;7.97;58.24;100905.59;5092669;28;20085;-85
2022/04/12 00:58:06;;;;;;;8.63;5.67;;;;;;;8.13;58.14;100944.97;5092949;28;20422;-84
2022/04/12 01:00:32;;;;;;;10.73;5.87;;;;;;;8.09;58.32;100936.41;5095152;28;20035;-80
2022/04/12 01:02:58;;;;;;;8.00;5.40;;;;;;;8.11;58.02;100926.28;5077356;28;20813;-80
2022/04/12 01:05:23;;;;;;;9.77;6.00;;;;;;;8.20;57.73;100937.75;5091639;28;20055;-87
2022/04/12 01:07:49;;;;;;;9.07;5.30;;;;;;;8.19;58.29;100938.81;5095981;28;20031;-85
2022/04/12 01:10:15;;;;;;;9.13;5.60;;;;;;;8.08;58.49;100929.38;5096040;28;20051;-87
2022/04/12 01:12:41;;;;;;;8.20;5.20;;;;;;;8.10;58.19;100935.41;5094539;28;20063;-85
2022/04/12 01:15:20;;;;;;;9.83;5.60;;;;;;;8.30;57.71;100959.06;5112942;27;20036;-80
2022/04/12 01:17:47;;;;;;;7.97;5.23;;;;;;;8.14;58.12;100931.28;5096424;28;20069;-84
2022/04/12 01:20:15;;;;;;;7.60;4.97;;;;;;;8.18;57.82;100932.56;5090549;28;20369;-81
2022/04/12 01:22:55;;;;;;;8.40;5.33;;;;;;;8.19;57.76;100931.53;5095764;28;20036;-84
2022/04/12 01:25:22;;;;;;;9.07;5.20;;;;;;;8.08;57.82;100919.41;5096286;28;20039;-86
2022/04/12 01:27:47;;;;;;;8.23;5.47;;;;;;;8.15;57.95;100926.75;5094697;28;20072;-80
2022/04/12 01:30:13;;;;;;;10.13;5.20;;;;;;;8.09;58.34;100929.19;5095888;28;20079;-80
2022/04/12 01:32:39;;;;;;;7.87;5.00;;;;;;;8.01;58.25;100920.38;5091504;28;20089;-81
2022/04/12 01:35:04;;;;;;;7.67;5.17;;;;;;;7.93;58.46;100915.94;5096778;28;20060;-81
2022/04/12 01:37:30;;;;;;;10.50;5.90;;;;;;;8.02;58.31;100924.75;5094956;28;20083;-80
2022/04/12 01:39:56;;;;;;;7.60;5.20;;;;;;;7.98;58.66;100918.06;5094567;28;20134;-81
2022/04/12 01:42:21;;;;;;;8.60;5.13;;;;;;;8.01;58.76;100933.84;5095625;28;20390;-80
2022/04/12 01:44:46;;;;;;;10.57;5.70;;;;;;;8.10;58.64;100947.06;5091377;28;20074;-80
2022/04/12 01:47:12;;;;;;;7.90;6.00;;;;;;;8.00;58.79;100932.22;5095297;28;20043;-81
2022/04/12 01:49:37;;;;;;;10.27;5.43;;;;;;;8.05;58.67;100943.22;5090150;28;20036;-79
2022/04/12 01:52:03;;;;;;;8.83;5.50;;;;;;;7.88;59.33;100919.22;5094870;28;20051;-82
2022/04/12 01:54:29;;;;;;;8.90;5.10;;;;;;;7.92;58.64;100920.50;5095449;28;20031;-85
2022/04/12 01:56:54;;;;;;;8.50;5.30;;;;;;;7.79;59.20;100904.16;5093392;28;20039;-86
2022/04/12 01:59:20;;;;;;;10.83;5.43;;;;;;;7.91;59.19;100915.28;5095879;28;20089;-82
2022/04/12 02:01:46;;;;;;;9.17;5.20;;;;;;;7.87;59.45;100908.63;5095028;28;20084;-83
2022/04/12 02:04:11;;;;;;;9.90;5.47;;;;;;;7.88;59.15;100913.00;5094892;28;20417;-83
2022/04/12 02:06:36;;;;;;;9.67;5.30;;;;;;;7.85;59.28;100908.81;5094236;28;20038;-84
2022/04/12 02:09:02;;;;;;;8.20;5.57;;;;;;;7.72;59.98;100887.09;5093205;28;20039;-84
2022/04/12 02:11:27;;;;;;;8.70;5.90;;;;;;;7.86;59.65;100907.78;5093431;28;20036;-85
2022/04/12 02:13:53;;;;;;;8.27;5.23;;;;;;;7.72;59.82;100892.47;5093286;28;20069;-83
2022/04/12 02:16:18;;;;;;;10.93;5.80;;;;;;;7.75;60.06;100909.13;5093663;28;20118;-83
2022/04/12 02:18:43;;;;;;;8.80;5.60;;;;;;;7.90;59.49;100932.50;5072288;28;20047;-83
2022/04/12 02:21:09;;;;;;;10.43;5.80;;;;;;;7.72;59.60;100900.56;5093647;28;20379;-83
2022/04/12 02:23:34;;;;;;;9.03;5.57;;;;;;;7.84;60.18;100926.00;5091140;28;20035;-83
2022/04/12 02:26:00;;;;;;;8.30;5.33;;;;;;;7.67;59.68;100900.31;5092813;28;20101;-82
2022/04/12 02:28:25;;;;;;;7.57;5.10;;;;;;;7.77;60.09;100917.03;5095243;28;20479;-85
2022/04/12 02:30:51;;;;;;;8.53;5.40;;;;;;;7.75;59.92;100913.66;5095406;28;20062;-84
2022/04/12 02:33:16;;;;;;;9.33;5.77;;;;;;;7.85;60.00;100929.56;5094505;28;20035;-83
2022/04/12 02:35:42;;;;;;;9.30;5.50;;;;;;;7.58;60.21;100889.66;5094796;28;20056;-83
2022/04/12 02:38:07;;;;;;;10.97;5.63;;;;;;;7.62;60.13;100897.38;5094133;28;20036;-84
2022/04/12 02:40:33;;;;;;;8.10;5.27;;;;;;;7.67;59.99;100903.00;5094559;28;20077;-85
2022/04/12 02:42:58;;;;;;;9.03;5.37;;;;;;;7.63;60.33;100891.78;5092428;28;20032;-83
2022/04/12 02:45:23;;;;;;;8.97;5.93;;;;;;;7.63;60.87;100890.94;5094822;28;20035;-84
2022/04/12 02:47:49;;;;;;;9.27;5.73;;;;;;;7.53;60.39;100885.84;5094154;28;20493;-84
2022/04/12 02:50:15;;;;;;;9.63;5.77;;;;;;;7.70;60.32;100910.75;5092890;28;20031;-85
2022/04/12 02:52:40;;;;;;;9.87;5.70;;;;;;;7.51;60.37;100875.25;5092325;28;20019;-83
2022/04/12 02:55:06;;;;;;;10.00;5.90;;;;;;;7.55;61.28;100886.50;5076324;28;20039;-83
2022/04/12 02:57:32;;;;;;;8.50;6.10;;;;;;;7.64;60.92;100901.53;5092831;28;20027;-81
2022/04/12 02:59:57;;;;;;;8.43;5.60;;;;;;;7.56;60.62;100882.78;5094029;28;20032;-80
2022/04/12 03:02:23;;;;;;;9.73;6.10;;;;;;;7.70;60.79;100903.47;5093958;28;20067;-82
2022/04/12 03:04:48;;;;;;;10.37;5.70;;;;;;;7.45;61.03;100865.22;5094025;28;20480;-80
2022/04/12 03:07:14;;;;;;;8.77;6.10;;;;;;;7.59;61.22;100887.81;5086992;28;20048;-83
2022/04/12 03:09:40;;;;;;;9.47;5.83;;;;;;;7.52;61.10;100873.41;5092254;28;20053;-80
2022/04/12 03:12:07;;;;;;;9.10;6.00;;;;;;;7.58;61.33;100895.03;5092795;28;20044;-85
2022/04/12 03:14:32;;;;;;;9.97;6.10;;;;;;;7.44;61.57;100871.66;5093492;28;20039;-84
2022/04/12 03:16:57;;;;;;;12.70;5.90;;;;;;;7.42;61.34;100865.63;5093824;28;20513;-83
2022/04/12 03:19:23;;;;;;;9.97;5.90;;;;;;;7.30;61.88;100851.78;5092312;28;20365;-84
2022/04/12 03:21:48;;;;;;;10.03;6.00;;;;;;;7.47;61.79;100867.75;5093533;28;20028;-83
2022/04/12 03:24:14;;;;;;;10.37;6.20;;;;;;;7.39;61.52;100853.34;5109943;27;20068;-86
2022/04/12 03:26:39;;;;;;;10.87;6.00;;;;;;;7.38;61.60;100840.06;5093715;28;20387;-83
2022/04/12 03:29:04;;;;;;;8.33;5.70;;;;;;;7.42;61.64;100855.69;5092760;28;20088;-83
2022/04/12 03:31:30;;;;;;;9.67;5.97;;;;;;;7.40;62.04;100856.91;5092925;28;20053;-83
2022/04/12 03:33:55;;;;;;;9.20;5.93;;;;;;;7.30;61.84;100834.81;5092917;28;20080;-82
2022/04/12 03:36:20;;;;;;;10.87;6.03;;;;;;;7.38;62.43;100848.16;5092638;28;20108;-83
2022/04/12 03:38:49;;;;;;;10.23;5.97;;;;;;;7.36;62.55;100845.66;5092938;28;20084;-84
2022/04/12 03:41:21;;;;;;;9.80;6.30;;;;;;;7.27;62.64;100836.00;5093165;28;20046;-82
2022/04/12 03:43:47;;;;;;;11.87;6.20;;;;;;;7.43;62.24;100870.00;5089157;28;20136;-82
2022/04/12 03:46:12;;;;;;;10.20;5.90;;;;;;;7.36;62.02;100852.91;5089639;28;20036;-85
2022/04/12 03:48:38;;;;;;;10.53;6.50;;;;;;;7.26;62.35;100835.19;5110020;28;20127;-83
2022/04/12 03:51:03;;;;;;;9.20;5.80;;;;;;;7.34;62.18;100847.69;5093559;28;20031;-83
2022/04/12 03:53:28;;;;;;;10.90;6.60;;;;;;;7.39;62.42;100860.63;5092837;28;20201;-82
2022/04/12 03:55:55;;;;;;;11.53;6.13;;;;;;;7.33;62.31;100864.91;5093321;28;20035;-83
2022/04/12 03:58:22;;;;;;;10.97;6.90;;;;;;;7.23;62.62;100851.72;5092065;28;20036;-80
2022/04/12 04:00:48;;;;;;;13.00;6.13;;;;;;;7.22;62.74;100850.06;5084465;28;20118;-83
2022/04/12 04:03:15;;;;;;;11.03;6.13;;;;;;;7.14;62.82;100825.94;5092618;28;20051;-80
2022/04/12 04:05:41;;;;;;;11.23;6.53;;;;;;;7.15;62.98;100824.88;5092194;28;20483;-84
2022/04/12 04:08:06;;;;;;;11.13;6.50;;;;;;;7.34;62.93;100852.25;5093162;28;20035;-83
2022/04/12 04:10:32;;;;;;;13.43;6.60;;;;;;;7.35;63.02;100854.75;5092669;28;20039;-81
2022/04/12 04:12:57;;;;;;;9.43;6.27;;;;;;;7.30;63.25;100832.94;5093489;28;20110;-83
2022/04/12 04:15:23;;;;;;;11.20;6.17;;;;;;;7.26;63.15;100821.72;5093216;28;20042;-82
2022/04/12 04:17:48;;;;;;;13.17;6.60;;;;;;;7.23;63.43;100821.25;5093548;28;20120;-84
2022/04/12 04:20:16;;;;;;;9.47;6.33;;;;;;;7.43;63.50;100851.13;5092979;28;20035;-83
2022/04/12 04:22:42;;;;;;;10.57;6.10;;;;;;;7.33;63.27;100829.03;5092276;28;20127;-82
2022/04/12 04:25:09;;;;;;;10.27;6.23;;;;;;;7.40;62.74;100827.25;5093595;28;20451;-83
2022/04/12 04:27:35;;;;;;;11.30;6.57;;;;;;;7.39;63.19;100834.50;5092626;28;20038;-79
2022/04/12 04:30:03;;;;;;;9.20;6.20;;;;;;;7.38;63.40;100832.81;5093369;28;20623;-84
2022/04/12 04:32:30;;;;;;;10.30;5.90;;;;;;;7.41;62.82;100828.91;5092741;27;20044;-81
2022/04/12 04:34:55;;;;;;;10.83;6.20;;;;;;;7.61;63.12;100864.16;5095502;28;20054;-85
2022/04/12 04:37:20;;;;;;;12.83;6.87;;;;;;;7.43;62.98;100833.06;5096821;28;20036;-85
2022/04/12 04:39:46;;;;;;;13.23;6.60;;;;;;;7.66;62.79;100864.44;5112555;27;20046;-85
2022/04/12 04:42:11;;;;;;;12.57;7.00;;;;;;;7.45;62.79;100830.19;5095174;28;20151;-83
2022/04/12 04:44:37;;;;;;;12.67;6.80;;;;;;;7.67;62.67;100866.09;5080501;28;20058;-84
2022/04/12 04:47:02;;;;;;;13.27;7.03;;;;;;;7.55;62.58;100837.97;5096419;28;20391;-83
2022/04/12 04:49:28;;;;;;;12.57;6.90;;;;;;;7.50;62.55;100825.06;5096957;28;20030;-84
2022/04/12 04:51:53;;;;;;;9.47;6.50;;;;;;;7.46;63.03;100818.38;5102391;27;20031;-83
2022/04/12 04:54:18;;;;;;;13.07;6.90;;;;;;;7.62;63.09;100848.84;5092353;28;20427;-86
2022/04/12 04:56:44;;;;;;;11.63;6.40;;;;;;;7.52;63.05;100841.91;5096477;28;20114;-83
2022/04/12 04:59:13;;;;;;;11.20;6.50;;;;;;;7.45;63.30;100849.06;5087487;28;20062;-85
2022/04/12 05:01:38;;;;;;;11.73;6.37;;;;;;;7.61;63.24;100883.03;5097114;28;20498;-84
2022/04/12 05:04:04;;;;;;;12.17;6.73;;;;;;;7.58;62.94;100881.56;5095754;28;20055;-83
2022/04/12 05:06:29;;;;;;;13.30;6.97;;;;;;;7.63;62.95;100880.16;5096505;28;20055;-85
2022/04/12 05:08:54;;;;;;;12.07;6.70;;;;;;;7.65;63.24;100892.41;5095103;28;20055;-84
2022/04/12 05:11:20;;;;;;;10.50;6.63;;;;;;;7.65;63.00;100894.28;5097064;28;20471;-85
2022/04/12 05:13:45;;;;;;;12.23;6.63;;;;;;;7.66;63.32;100898.66;5096304;28;20035;-84
2022/04/12 05:16:11;;;;;;;10.90;6.80;;;;;;;7.66;63.00;100891.41;5096096;28;20101;-84
2022/04/12 05:18:36;;;;;;;14.03;6.53;;;;;;;7.68;63.21;100891.19;5096726;28;20046;-82
2022/04/12 05:21:02;;;;;;;10.10;6.70;;;;;;;7.65;63.09;100876.22;5096346;28;20036;-83
2022/04/12 05:23:27;;;;;;;11.43;6.63;;;;;;;7.70;63.18;100884.59;5096098;28;20036;-83
2022/04/12 05:25:53;;;;;;;13.57;7.27;;;;;;;7.75;63.55;100892.09;5096010;28;20027;-83
2022/04/12 05:28:19;;;;;;;13.60;7.40;;;;;;;7.80;63.25;100883.44;5095848;28;20117;-84
2022/04/12 05:30:45;;;;;;;12.70;7.30;;;;;;;7.79;63.05;100871.81;5093579;28;20432;-81
2022/04/12 05:33:10;;;;;;;12.07;7.00;;;;;;;7.88;62.97;100886.00;5091197;28;20048;-82
2022/04/12 05:35:36;;;;;;;14.90;7.27;;;;;;;7.96;63.28;100890.44;5095825;28;20061;-82
2022/04/12 05:38:04;;;;;;;11.80;7.03;;;;;;;8.00;62.90;100880.94;5096039;28;20042;-84
2022/04/12 05:40:29;;;;;;;13.53;7.40;;;;;;;8.03;62.80;100878.66;5096391;28;20443;-85
2022/04/12 05:42:54;;;;;;;13.63;7.20;;;;;;;8.08;62.91;100878.09;5095159;28;20257;-84
2022/04/12 05:45:20;;;;;;;13.47;7.30;;;;;;;8.09;63.35;100877.06;5094873;28;20043;-84
2022/04/12 05:47:49;;;;;;;11.87;7.53;;;;;;;8.14;62.92;100879.19;5095945;28;20062;-85
2022/04/12 05:50:16;;;;;;;12.23;7.00;;;;;;;8.13;62.19;100877.50;5095811;28;20032;-82
2022/04/12 05:52:42;;;;;;;13.33;7.60;;;;;;;8.15;62.62;100881.69;5095330;28;20047;-79
2022/04/12 05:55:15;;;;;;;13.03;7.63;;;;;;;8.09;62.33;100877.91;5091556;28;20035;-83
2022/04/12 05:58:00;;;;;;;12.40;7.37;;;;;;;8.15;62.33;100887.09;5095253;28;20475;-80
2022/04/12 06:00:28;;;;;;;12.03;7.40;;;;;;;8.15;62.22;100892.47;5093899;28;20348;-83
2022/04/12 06:02:54;;;;;;;11.00;7.03;;;;;;;8.22;62.38;100900.63;5095588;28;20039;-85
2022/04/12 06:05:22;;;;;;;16.20;7.70;;;;;;;8.22;62.65;100898.75;5095502;28;20048;-82
2022/04/12 06:07:48;;;;;;;13.57;7.50;;;;;;;8.21;62.48;100880.88;5095408;27;20058;-83
2022/04/12 06:10:15;;;;;;;13.20;7.60;;;;;;;8.30;62.75;100888.88;5094988;28;20453;-82
2022/04/12 06:12:41;;;;;;;14.70;8.10;;;;;;;8.39;62.01;100887.66;5095665;28;20108;-81
2022/04/12 06:15:07;;;;;;;14.03;7.87;;;;;;;8.42;62.73;100887.31;5094858;28;20144;-81
2022/04/12 06:17:34;;;;;;;13.70;7.57;;;;;;;8.49;62.31;100895.47;5094883;28;20486;-84
2022/04/12 06:20:14;;;;;;;12.10;7.40;;;;;;;8.52;62.25;100887.81;5094747;28;20027;-82
2022/04/12 06:22:40;;;;;;;13.63;8.17;;;;;;;8.55;62.32;100887.41;5094956;28;20038;-83
2022/04/12 06:25:08;;;;;;;15.70;8.80;;;;;;;8.67;62.23;100889.56;5094130;28;20036;-81
2022/04/12 06:27:40;;;;;;;15.43;7.83;;;;;;;8.75;61.58;100894.81;5094495;28;20169;-80
2022/04/12 06:30:14;;;;;;;15.73;7.93;;;;;;;8.83;61.54;100889.25;5094206;28;20031;-82
2022/04/12 06:32:39;;;;;;;14.10;7.50;;;;;;;8.94;60.57;100894.09;5094765;28;20024;-84
2022/04/12 06:35:07;;;;;;;13.83;7.90;;;;;;;9.02;60.92;100893.09;5099740;28;20419;-83
2022/04/12 06:37:32;;;;;;;13.63;8.00;;;;;;;9.12;60.71;100887.31;5100250;28;20028;-83
2022/04/12 06:39:59;;;;;;;12.40;7.77;;;;;;;9.20;60.37;100878.19;5102652;28;20149;-85
2022/04/12 06:42:25;;;;;;;13.53;7.90;;;;;;;9.31;60.21;100885.72;5098433;28;20355;-81
2022/04/12 06:44:50;;;;;;;13.13;7.70;;;;;;;9.38;60.15;100880.34;5094347;28;20027;-82
2022/04/12 06:47:16;;;;;;;13.67;7.47;;;;;;;9.52;59.86;100890.16;5105785;28;20046;-82
2022/04/12 06:49:46;;;;;;;12.93;7.70;;;;;;;9.53;59.74;100875.59;5079055;28;20399;-82
2022/04/12 06:52:12;;;;;;;12.77;7.60;;;;;;;9.64;59.15;100879.56;5095722;28;20176;-81
2022/04/12 06:54:38;;;;;;;15.33;7.40;;;;;;;9.79;58.89;100882.94;5100900;28;20460;-87
2022/04/12 06:57:04;;;;;;;12.20;7.60;;;;;;;9.87;59.12;100879.19;5096158;28;20127;-80
2022/04/12 06:59:30;;;;;;;12.47;7.40;;;;;;;9.97;58.51;100868.81;5095206;28;20031;-82
2022/04/12 07:01:55;;;;;;;13.53;8.20;;;;;;;10.16;59.30;100870.88;5110713;28;20027;-81
2022/04/12 07:04:21;;;;;;;14.10;8.17;;;;;;;10.08;59.00;100844.88;5102191;28;20027;-83
2022/04/12 07:06:47;;;;;;;11.90;7.13;;;;;;;10.40;58.62;100872.16;5098851;28;20349;-81
2022/04/12 07:09:18;;;;;;;13.47;7.57;;;;;;;10.51;57.97;100866.09;5104717;28;20345;-81
2022/04/12 07:11:44;;;;;;;11.50;7.10;;;;;;;10.60;57.51;100856.69;5100516;28;20043;-80
2022/04/12 07:14:10;;;;;;;11.63;7.60;;;;;;;10.66;56.38;100851.47;5082358;28;20046;-91
2022/04/12 07:16:35;;;;;;;13.27;7.37;;;;;;;10.75;56.31;100859.16;5080407;28;20510;-83
2022/04/12 07:19:01;;;;;;;10.40;7.10;;;;;;;10.79;56.61;100846.03;5103995;28;20111;-79
2022/04/12 07:21:29;;;;;;;12.23;6.97;;;;;;;10.98;56.05;100855.97;5098462;28;20474;-83
2022/04/12 07:23:54;;;;;;;13.23;7.23;;;;;;;11.25;55.80;100880.25;5091339;28;20161;-83
2022/04/12 07:26:19;;;;;;;11.63;7.07;;;;;;;11.26;55.07;100859.38;5093330;27;21064;-84
2022/04/12 07:28:45;;;;;;;12.57;7.37;;;;;;;11.48;55.59;100873.50;5091096;28;20031;-82
2022/04/12 07:31:10;;;;;;;11.87;6.73;;;;;;;11.46;54.49;100872.84;5091034;28;20040;-84
2022/04/12 07:33:35;;;;;;;14.63;7.70;;;;;;;11.66;55.15;100886.31;5092775;28;20023;-82
2022/04/12 07:36:01;;;;;;;11.70;7.00;;;;;;;11.71;54.48;100877.50;5092042;28;20056;-83
2022/04/12 07:38:26;;;;;;;13.20;7.53;;;;;;;11.91;54.69;100880.09;5087174;28;20039;-83
2022/04/12 07:40:53;;;;;;;9.83;6.93;;;;;;;11.96;53.91;100867.56;5086995;28;20459;-80
2022/04/12 07:43:19;;;;;;;11.53;6.73;;;;;;;12.05;53.46;100873.56;5089521;28;20050;-86
2022/04/12 07:45:44;;;;;;;11.90;7.50;;;;;;;12.22;54.17;100875.72;5090726;28;20035;-86
2022/04/12 07:48:09;;;;;;;12.73;7.20;;;;;;;12.32;53.50;100876.88;5090905;28;20414;-86
2022/04/12 07:50:35;;;;;;;11.20;7.07;;;;;;;12.43;53.09;100866.31;5090688;28;20134;-84
2022/04/12 07:53:00;;;;;;;13.23;7.30;;;;;;;12.59;53.38;100873.06;5092767;28;20038;-84
2022/04/12 07:55:25;;;;;;;12.43;7.03;;;;;;;12.82;54.46;100877.84;5072377;28;20122;-86
2022/04/12 07:57:51;;;;;;;11.60;7.67;;;;;;;12.88;52.25;100876.97;5097749;28;20059;-84
2022/04/12 08:00:16;;;;;;;12.60;7.17;;;;;;;13.05;53.12;100879.06;5090352;28;20864;-84
2022/04/12 08:02:42;;;;;;;12.77;7.33;;;;;;;13.16;53.86;100861.97;5091457;28;20039;-82
2022/04/12 08:05:07;;;;;;;10.80;7.13;;;;;;;13.37;51.34;100871.56;5089169;28;20051;-82
2022/04/12 08:07:32;;;;;;;10.90;7.20;;;;;;;13.66;52.47;100878.06;5092766;28;20039;-82
2022/04/12 08:09:58;;;;;;;11.60;7.30;;;;;;;13.70;51.18;100861.28;5094093;28;20043;-82
2022/04/12 08:12:23;;;;;;;9.67;6.90;;;;;;;13.84;51.63;100866.31;5097061;28;20066;-84
2022/04/12 08:14:48;;;;;;;10.93;7.17;;;;;;;13.97;51.56;100873.41;5095782;28;20034;-82
2022/04/12 08:17:14;;;;;;;10.23;6.80;;;;;;;14.13;52.40;100868.34;5096878;28;20036;-85
2022/04/12 08:19:39;;;;;;;10.00;6.60;;;;;;;14.26;50.62;100879.03;5114209;28;20024;-80
2022/04/12 08:22:05;;;;;;;12.37;6.73;;;;;;;14.34;49.13;100873.22;5114129;28;20467;-80
2022/04/12 08:24:30;;;;;;;11.90;6.70;;;;;;;14.55;50.05;100876.44;5107349;28;20019;-79
2022/04/12 08:26:55;;;;;;;10.23;5.87;;;;;;;14.62;48.75;100876.31;5110472;28;20019;-80
2022/04/12 08:30:17;;;;;;;10.43;6.00;;;;;;;14.96;49.79;100882.81;5088849;28;20150;-80
2022/04/12 08:32:42;;;;;;;11.67;5.70;;;;;;;15.25;48.08;100885.59;5103759;28;20062;-80
2022/04/12 08:35:09;;;;;;;9.57;5.33;;;;;;;15.27;46.03;100871.69;5103692;28;20051;-81
2022/04/12 08:37:35;;;;;;;10.00;5.80;;;;;;;15.42;47.23;100876.63;5097014;28;20097;-82
2022/04/12 08:40:00;;;;;;;9.63;5.63;;;;;;;15.53;46.47;100868.41;5097116;28;20036;-86
2022/04/12 08:42:26;;;;;;;7.87;5.17;;;;;;;15.80;45.47;100872.44;5097545;27;20473;-84
2022/04/12 08:44:52;;;;;;;9.17;5.10;;;;;;;15.94;45.29;100864.75;5097249;28;20042;-84
2022/04/12 08:47:19;;;;;;;8.40;4.77;;;;;;;15.99;44.74;100862.97;5097797;28;20055;-89
2022/04/12 08:49:45;;;;;;;8.17;4.67;;;;;;;16.13;44.26;100865.34;5096959;28;20046;-83
2022/04/12 08:52:14;;;;;;;8.93;4.50;;;;;;;16.18;44.77;100858.09;5097359;28;20119;-85
2022/04/12 08:54:40;;;;;;;8.30;4.70;;;;;;;16.24;44.85;100850.78;5097841;28;20027;-86
2022/04/12 08:57:06;;;;;;;7.77;4.57;;;;;;;16.51;44.69;100847.38;5097289;28;20044;-84
2022/04/12 08:59:32;;;;;;;11.07;4.90;;;;;;;16.52;44.44;100843.53;5096000;28;20430;-84
2022/04/12 09:01:58;;;;;;;7.90;4.50;;;;;;;16.91;44.03;100856.41;5096516;28;20171;-81
2022/04/12 09:04:27;;;;;;;10.23;4.60;;;;;;;17.07;42.61;100846.44;5096542;28;20039;-86
2022/04/12 09:06:55;;;;;;;9.67;4.50;;;;;;;17.09;43.80;100842.38;5096174;28;20075;-87
2022/04/12 09:09:23;;;;;;;8.77;4.17;;;;;;;17.18;42.11;100840.03;5097013;27;20060;-82
2022/04/12 09:12:08;;;;;;;6.93;3.93;;;;;;;17.24;42.22;100846.41;5097245;28;20089;-84
2022/04/12 09:14:46;;;;;;;8.80;4.10;;;;;;;17.22;43.13;100832.97;5097455;28;20039;-83
2022/04/12 09:17:14;;;;;;;8.47;4.27;;;;;;;17.23;41.70;100839.25;5097258;28;20446;-84
2022/04/12 09:19:47;;;;;;;8.30;4.60;;;;;;;17.45;42.16;100839.22;5095821;28;20494;-90
2022/04/12 09:22:27;;;;;;;8.25;4.40;;;;;;;17.76;42.06;100840.38;5096680;28;20031;-79
2022/04/12 09:24:57;;;;;;;6.03;4.17;;;;;;;17.99;42.17;100846.59;5095945;28;20509;-82
2022/04/12 09:27:25;;;;;;;7.80;4.50;;;;;;;18.30;42.16;100828.44;5103005;28;20028;-79
2022/04/12 09:29:56;;;;;;;7.35;4.18;;;;;;;18.19;41.46;100824.81;5105695;28;20015;-78
2022/04/12 09:32:24;;;;;;;8.30;4.28;;;;;;;18.32;41.84;100822.72;5112767;28;20027;-79
2022/04/12 09:34:50;;;;;;;7.45;4.20;;;;;;;18.50;40.82;100821.47;5108921;28;20024;-77
2022/04/12 09:37:24;;;;;;;6.68;3.80;;;;;;;18.52;41.90;100811.03;5109231;28;20089;-79
2022/04/12 09:39:59;;;;;;;6.25;3.75;;;;;;;18.58;41.20;100809.97;5100200;28;20023;-78
2022/04/12 09:42:47;;;;;;;11.32;4.10;;;;;;;18.91;40.89;100807.94;5099214;28;20043;-81
2022/04/12 09:45:24;;;;;;;4.57;3.38;;;;;;;18.96;39.86;100812.63;5095502;28;20043;-83
2022/04/12 09:47:52;;;;;;;7.65;3.90;;;;;;;19.20;40.40;100810.22;5094334;28;20036;-81
2022/04/12 09:50:25;;;;;;;7.10;3.50;;;;;;;19.17;39.31;100810.78;5095273;28;20110;-80
2022/04/12 09:52:53;;;;;;;7.68;4.03;;;;;;;18.97;38.81;100804.16;5095725;28;20027;-81
2022/04/12 09:55:36;;;;;;;5.30;4.10;;;;;;;19.01;40.49;100819.00;5095556;28;20118;-80
2022/04/12 09:58:06;;;;;;;5.95;3.58;;;;;;;19.13;38.46;100815.97;5094652;28;20062;-81
2022/04/12 10:00:33;;;;;;;5.60;3.50;;;;;;;19.47;40.60;100825.69;5088805;28;20515;-78
2022/04/12 10:03:01;;;;;;;6.85;3.63;;;;;;;19.48;38.89;100817.16;5094951;28;20586;-78
2022/04/12 10:05:28;;;;;;;8.60;3.80;;;;;;;19.23;39.75;100817.97;5095317;28;20090;-79
2022/04/12 10:07:58;;;;;;;8.88;3.80;;;;;;;19.30;38.93;100813.03;5095337;28;20486;-83
2022/04/12 10:10:25;;;;;;;6.82;3.90;;;;;;;19.32;39.39;100827.28;5094758;28;20028;-81
2022/04/12 10:12:52;;;;;;;9.10;3.90;;;;;;;19.57;39.24;100814.72;5095563;28;20064;-79
2022/04/12 10:15:19;;;;;;;8.23;3.90;;;;;;;19.91;40.81;100822.47;5094869;28;20046;-81
2022/04/12 10:17:46;;;;;;;6.78;3.42;;;;;;;19.58;38.20;100810.84;5095140;28;20486;-80
2022/04/12 10:20:14;;;;;;;7.85;3.50;;;;;;;19.64;39.50;100806.22;5094782;28;20040;-80
2022/04/12 10:22:40;;;;;;;5.68;3.65;;;;;;;19.79;39.91;100803.47;5094356;28;20387;-77
2022/04/12 10:25:07;;;;;;;7.10;3.50;;;;;;;19.71;38.75;100793.81;5100425;28;20340;-76
2022/04/12 10:27:33;;;;;;;7.45;3.88;;;;;;;19.82;41.12;100782.88;5106915;28;20051;-79
2022/04/12 10:30:21;;;;;;;4.78;3.55;;;;;;;20.04;39.73;100779.81;5092367;28;20172;-78
2022/04/12 10:33:07;;;;;;;4.85;3.60;;;;;;;19.92;39.21;100777.34;5103022;28;20416;-76
2022/04/12 10:35:45;;;;;;;7.72;3.42;;;;;;;19.95;38.97;100778.72;5095719;28;20064;-81
2022/04/12 10:38:15;;;;;;;8.27;3.63;;;;;;;19.54;38.27;100774.03;5092605;28;20207;-76
2022/04/12 10:40:45;;;;;;;7.03;3.50;;;;;;;19.34;39.31;100767.44;5090140;28;20414;-77
2022/04/12 10:43:12;;;;;;;6.35;3.40;;;;;;;19.45;39.45;100767.41;5094227;28;20048;-81
2022/04/12 10:45:45;;;;;;;6.70;3.40;;;;;;;19.69;39.58;100765.81;5090326;28;20038;-78
2022/04/12 10:48:19;;;;;;;7.55;3.30;;;;;;;19.66;39.23;100766.34;5093143;28;20036;-79
2022/04/12 10:50:46;;;;;;;7.28;3.38;;;;;;;19.73;38.66;100753.16;5090682;27;20077;-79
2022/04/12 10:53:11;;;;;;;8.13;3.40;;;;;;;19.64;39.51;100767.72;5094770;28;20031;-82
2022/04/12 10:55:40;;;;;;;6.63;3.47;;;;;;;19.56;39.27;100766.34;5092180;28;20122;-80
2022/04/12 10:58:34;;;;;;;5.05;3.45;;;;;;;19.71;40.06;100760.84;5094483;28;20508;-80
2022/04/12 11:01:00;;;;;;;7.38;3.63;;;;;;;19.82;38.95;100750.69;5090446;28;20043;-80
2022/04/12 11:03:46;;;;;;;8.75;3.22;;;;;;;19.90;38.78;100739.13;5094565;28;20071;-80
2022/04/12 11:06:24;;;;;;;6.93;3.20;;;;;;;20.18;39.47;100747.91;5091619;28;20079;-78
2022/04/12 11:08:52;;;;;;;5.07;3.10;;;;;;;20.27;38.22;100739.06;5091946;28;20043;-82
2022/04/12 11:11:21;;;;;;;7.60;3.30;;;;;;;20.32;38.65;100745.38;5086721;28;20031;-78
2022/04/12 11:13:46;;;;;;;6.00;3.05;;;;;;;20.41;38.56;100742.88;5094977;28;20070;-77
2022/04/12 11:16:16;;;;;;;8.23;3.03;;;;;;;20.31;38.47;100751.16;5090199;28;20379;-81
2022/04/12 11:18:59;;;;;;;6.38;3.00;;;;;;;20.33;37.94;100766.28;5087693;28;20027;-81
2022/04/12 11:21:51;;;;;;;4.77;3.00;;;;;;;20.42;37.77;100770.09;5087119;28;20043;-80
2022/04/12 11:24:17;;;;;;;7.15;2.70;;;;;;;20.23;37.84;100766.31;5092020;28;20036;-78
2022/04/12 11:26:45;;;;;;;8.60;3.10;;;;;;;20.45;37.41;100767.91;5091021;28;20032;-81
2022/04/12 11:29:10;;;;;;;4.85;2.65;;;;;;;20.60;36.97;100765.09;5091942;28;20036;-78
2022/04/12 11:31:48;;;;;;;4.40;2.72;;;;;;;20.51;36.45;100747.53;5090323;28;20070;-78